createdAt,value
2018-11-13T00:00:15.612Z,24033.82
2018-11-13T00:02:44.032Z,25660.65
2018-11-13T00:05:12.666Z,24433.90
2018-11-13T00:07:41.173Z,25688.07
2018-11-13T00:10:10.579Z,20067.49
2018-11-13T00:12:39.016Z,25233.38
2018-11-13T00:15:07.431Z,21726.09
2018-11-13T00:17:35.996Z,22243.62
2018-11-13T00:20:04.658Z,19088.83
2018-11-13T00:22:32.949Z,21274.04
2018-11-13T00:25:01.255Z,29458.36
2018-11-13T00:27:29.590Z,28697.62
2018-11-13T00:29:57.928Z,32737.94
2018-11-13T00:32:26.306Z,31569.23
2018-11-13T00:34:54.730Z,30602.63
2018-11-13T00:37:23.067Z,26720.34
2018-11-13T00:39:51.461Z,30458.49
2018-11-13T00:42:19.712Z,27635.81
2018-11-13T00:44:48.159Z,32397.41
2018-11-13T00:47:16.545Z,37308.66
2018-11-13T00:49:44.951Z,58226.28
2018-11-13T00:52:13.283Z,58308.95
2018-11-13T00:54:41.675Z,56404.43
2018-11-13T00:57:10.015Z,51647.90
2018-11-13T00:59:38.388Z,45430.64
2018-11-13T01:02:07.068Z,50082.52
2018-11-13T01:04:35.282Z,42911.65
2018-11-13T01:07:03.720Z,48762.49
2018-11-13T01:09:32.082Z,51786.24
2018-11-13T01:12:00.477Z,53494.99
2018-11-13T01:14:28.786Z,51960.52
2018-11-13T01:16:57.460Z,57183.64
2018-11-13T01:19:25.461Z,62238.38
2018-11-13T01:21:53.895Z,-21296.17
2018-11-13T01:24:22.231Z,-3631.36
2018-11-13T01:26:50.555Z,21047.42
2018-11-13T01:29:18.967Z,36139.71
2018-11-13T01:31:47.388Z,43406.98
2018-11-13T01:34:15.742Z,47972.45
2018-11-13T01:36:44.106Z,48933.10
2018-11-13T01:39:12.477Z,50494.55
2018-11-13T01:41:40.829Z,43574.49
2018-11-13T01:44:09.875Z,39830.09
2018-11-13T01:46:38.231Z,42313.13
2018-11-13T01:49:06.588Z,19689.47
2018-11-13T01:51:34.924Z,35356.93
2018-11-13T01:54:03.751Z,42146.74
2018-11-13T01:56:32.296Z,41464.20
2018-11-13T01:59:00.734Z,40973.22
2018-11-13T02:01:29.169Z,40017.49
2018-11-13T02:03:57.531Z,42446.15
2018-11-13T02:06:25.908Z,37409.22
2018-11-13T02:08:54.266Z,35540.06
2018-11-13T02:11:22.704Z,34481.08
2018-11-13T02:13:51.027Z,32832.55
2018-11-13T02:16:19.395Z,31358.83
2018-11-13T02:18:47.679Z,25280.82
2018-11-13T02:21:16.066Z,24904.50
2018-11-13T02:23:44.431Z,20148.54
2018-11-13T02:26:12.748Z,21167.34
2018-11-13T02:28:41.124Z,24734.08
2018-11-13T02:31:09.468Z,25216.41
2018-11-13T02:33:37.936Z,26449.17
2018-11-13T02:36:06.374Z,29305.18
2018-11-13T02:38:34.731Z,31550.14
2018-11-13T02:41:03.100Z,38704.50
2018-11-13T02:43:31.383Z,47108.76
2018-11-13T02:45:59.784Z,37584.06
2018-11-13T02:48:28.099Z,33378.05
2018-11-13T02:50:56.448Z,32432.42
2018-11-13T02:53:24.788Z,44409.88
2018-11-13T02:55:53.127Z,28823.35
2018-11-13T02:58:21.502Z,27710.93
2018-11-13T03:00:50.638Z,26922.30
2018-11-13T03:03:18.976Z,28502.82
2018-11-13T03:05:47.302Z,28674.05
2018-11-13T03:08:15.570Z,31246.34
2018-11-13T03:10:43.906Z,26952.80
2018-11-13T03:13:12.238Z,31468.19
2018-11-13T03:15:40.743Z,68420.57
2018-11-13T03:18:09.128Z,37353.50
2018-11-13T03:20:37.565Z,40171.35
2018-11-13T03:23:05.925Z,41488.04
2018-11-13T03:25:34.393Z,34082.71
2018-11-13T03:28:02.920Z,32472.49
2018-11-13T03:30:31.352Z,32101.43
2018-11-13T03:32:59.724Z,-21285.29
2018-11-13T03:35:28.278Z,-21302.11
2018-11-13T03:37:56.562Z,-5636.73
2018-11-13T03:40:24.953Z,26799.39
2018-11-13T03:42:53.250Z,33835.50
2018-11-13T03:45:21.649Z,37040.20
2018-11-13T03:47:49.995Z,-21348.39
2018-11-13T03:50:19.427Z,-21329.77
2018-11-13T03:52:47.919Z,-21310.72
2018-11-13T03:55:16.670Z,-21309.02
2018-11-13T03:57:45.628Z,-18180.24
2018-11-13T04:00:15.267Z,-21294.19
2018-11-13T04:02:43.663Z,-21282.88
2018-11-13T04:05:14.282Z,-21371.78
2018-11-13T04:07:44.860Z,-21349.09
2018-11-13T04:10:14.212Z,-11156.82
2018-11-13T04:12:43.102Z,51267.49
2018-11-13T04:15:14.123Z,60599.73
2018-11-13T04:17:42.572Z,65214.49
2018-11-13T04:20:12.762Z,58869.66
2018-11-13T04:22:41.543Z,9092.18
2018-11-13T04:25:09.880Z,-4775.07
2018-11-13T04:27:38.246Z,23904.64
2018-11-13T04:30:09.048Z,41349.86
2018-11-13T04:32:37.539Z,43780.33
2018-11-13T04:35:07.315Z,21486.70
2018-11-13T04:37:35.659Z,-7999.79
2018-11-13T04:40:04.862Z,36817.48
2018-11-13T04:42:33.227Z,47638.58
2018-11-13T04:45:01.525Z,49719.02
2018-11-13T04:47:29.830Z,51449.68
2018-11-13T04:49:58.203Z,51158.68
2018-11-13T04:52:26.509Z,52513.61
2018-11-13T04:54:54.853Z,52673.50
2018-11-13T04:57:23.099Z,53570.16
2018-11-13T04:59:51.479Z,53194.24
2018-11-13T05:02:19.782Z,51876.05
2018-11-13T05:04:48.108Z,51685.66
2018-11-13T05:07:16.495Z,50746.21
2018-11-13T05:09:44.862Z,50914.29
2018-11-13T05:12:13.162Z,49558.62
2018-11-13T05:14:41.587Z,49698.21
2018-11-13T05:17:09.961Z,48921.41
2018-11-13T05:19:38.342Z,48776.67
2018-11-13T05:22:07.003Z,47415.26
2018-11-13T05:24:35.376Z,47338.07
2018-11-13T05:27:03.640Z,46875.65
2018-11-13T05:29:31.971Z,45470.04
2018-11-13T05:32:00.692Z,45228.09
2018-11-13T05:34:28.955Z,41105.50
2018-11-13T05:36:57.310Z,39695.73
2018-11-13T05:39:25.626Z,50479.07
2018-11-13T05:41:53.992Z,35191.82
2018-11-13T05:44:22.241Z,34984.02
2018-11-13T05:46:50.624Z,35226.13
2018-11-13T05:49:18.943Z,32452.11
2018-11-13T05:51:47.257Z,-21268.74
2018-11-13T05:54:15.569Z,-13409.69
2018-11-13T05:56:43.892Z,-21297.59
2018-11-13T05:59:12.235Z,-9571.84
2018-11-13T06:01:40.457Z,15333.88
2018-11-13T06:04:09.054Z,24177.86
2018-11-13T06:06:37.378Z,25866.61
2018-11-13T06:09:06.975Z,28633.10
2018-11-13T06:11:35.292Z,28767.12
2018-11-13T06:14:03.757Z,-21292.21
2018-11-13T06:16:32.031Z,-21279.63
2018-11-13T06:19:00.363Z,-21291.23
2018-11-13T06:21:28.657Z,-21284.58
2018-11-13T06:23:57.061Z,-21293.91
2018-11-13T06:26:25.351Z,25262.94
2018-11-13T06:28:53.720Z,36698.56
2018-11-13T06:31:22.068Z,38971.92
2018-11-13T06:33:50.422Z,35121.95
2018-11-13T06:36:19.211Z,30355.84
2018-11-13T06:38:47.551Z,31638.66
2018-11-13T06:41:16.712Z,27375.48
2018-11-13T06:43:45.000Z,26450.66
2018-11-13T06:46:14.556Z,11119.14
2018-11-13T06:48:42.880Z,12622.59
2018-11-13T06:51:11.228Z,21224.74
2018-11-13T06:53:50.920Z,22014.11
2018-11-13T06:56:19.217Z,22799.25
2018-11-13T06:58:47.508Z,25547.93
2018-11-13T07:01:15.928Z,25340.52
2018-11-13T07:03:44.264Z,26567.57
2018-11-13T07:06:12.580Z,7391.75
2018-11-13T07:08:40.919Z,7891.68
2018-11-13T07:11:09.262Z,13513.43
2018-11-13T07:13:37.496Z,21690.92
2018-11-13T07:16:06.142Z,16664.23
2018-11-13T07:18:34.498Z,17158.55
2018-11-13T07:21:02.819Z,16257.49
2018-11-13T07:23:31.127Z,19019.80
2018-11-13T07:25:59.579Z,20083.05
2018-11-13T07:28:27.896Z,19615.75
2018-11-13T07:30:56.223Z,21332.60
2018-11-13T07:33:24.539Z,13360.92
2018-11-13T07:35:52.815Z,12163.48
2018-11-13T07:38:21.129Z,12882.01
2018-11-13T07:40:49.533Z,16411.61
2018-11-13T07:43:17.848Z,13705.60
2018-11-13T07:45:46.139Z,19670.58
2018-11-13T07:48:14.501Z,19982.23
2018-11-13T07:50:42.798Z,15380.52
2018-11-13T07:53:11.157Z,13843.47
2018-11-13T07:55:39.436Z,12733.91
2018-11-13T07:58:07.768Z,13575.37
2018-11-13T08:00:36.372Z,12945.11
2018-11-13T08:03:35.838Z,12451.29
2018-11-13T08:06:04.848Z,13188.67
2018-11-13T08:08:33.171Z,12351.37
2018-11-13T08:11:02.578Z,13319.70
2018-11-13T08:13:31.415Z,11974.93
2018-11-13T08:15:59.590Z,9859.07
2018-11-13T08:18:28.052Z,13028.55
2018-11-13T08:20:56.308Z,7923.08
2018-11-13T08:23:25.715Z,5527.73
2018-11-13T08:25:54.062Z,6035.46
2018-11-13T08:28:22.576Z,9675.71
2018-11-13T08:30:50.843Z,6559.18
2018-11-13T08:33:19.342Z,7146.71
2018-11-13T08:35:47.767Z,6919.64
2018-11-13T08:38:15.983Z,29139.44
2018-11-13T08:40:44.324Z,-21315.38
2018-11-13T08:43:12.690Z,14181.69
2018-11-13T08:45:41.033Z,15927.34
2018-11-13T08:48:09.404Z,12754.24
2018-11-13T08:50:37.905Z,13519.35
2018-11-13T08:53:06.560Z,13577.93
2018-11-13T08:55:34.936Z,13494.31
2018-11-13T08:58:03.268Z,12502.77
2018-11-13T09:00:31.621Z,10116.63
2018-11-13T09:03:00.023Z,11786.73
2018-11-13T09:05:28.761Z,6965.75
2018-11-13T09:07:57.191Z,5839.95
2018-11-13T09:10:25.530Z,8852.85
2018-11-13T09:12:53.884Z,5822.09
2018-11-13T09:15:22.487Z,6382.44
2018-11-13T09:17:56.504Z,6257.64
2018-11-13T09:20:24.913Z,8436.10
2018-11-13T09:22:53.250Z,8165.70
2018-11-13T09:25:23.581Z,7663.81
2018-11-13T09:27:51.933Z,9380.54
2018-11-13T09:30:21.644Z,6002.02
2018-11-13T09:35:19.182Z,8539.85
2018-11-13T09:37:47.465Z,6658.55
2018-11-13T09:40:17.499Z,5618.03
2018-11-13T09:42:46.821Z,3915.96
2018-11-13T09:45:15.826Z,5931.84
2018-11-13T09:47:44.262Z,4629.46
2018-11-13T09:50:14.211Z,4763.74
2018-11-13T09:52:43.757Z,4581.63
2018-11-13T09:55:13.599Z,4286.73
2018-11-13T09:57:42.026Z,3768.82
2018-11-13T10:00:13.272Z,3117.08
2018-11-13T10:02:42.618Z,2785.20
2018-11-13T10:05:11.343Z,1499.15
2018-11-13T10:07:38.994Z,1493.47
2018-11-13T10:10:08.455Z,269.36
2018-11-13T10:12:36.850Z,350.80
2018-11-13T10:15:07.013Z,-376.22
2018-11-13T10:17:35.483Z,-193.61
2018-11-13T10:20:03.739Z,52.72
2018-11-13T10:22:33.108Z,63.95
2018-11-13T10:25:01.554Z,336.75
2018-11-13T10:27:29.864Z,588.92
2018-11-13T10:29:58.356Z,675.16
2018-11-13T10:32:26.781Z,566.12
2018-11-13T10:34:55.186Z,-301.90
2018-11-13T10:37:23.603Z,-1546.79
2018-11-13T10:39:51.998Z,-2385.53
2018-11-13T10:42:20.337Z,-2074.98
2018-11-13T10:44:48.723Z,-2043.04
2018-11-13T10:47:17.115Z,-2576.18
2018-11-13T10:49:45.497Z,-4476.23
2018-11-13T10:52:13.876Z,-4364.74
2018-11-13T10:54:42.288Z,-7982.74
2018-11-13T10:57:10.712Z,-8769.48
2018-11-13T10:59:39.351Z,-11183.28
2018-11-13T11:02:12.915Z,-9224.60
2018-11-13T11:04:41.285Z,-10930.60
2018-11-13T11:07:09.708Z,-13577.91
2018-11-13T11:09:38.408Z,-15672.51
2018-11-13T11:12:07.193Z,-16001.79
2018-11-13T11:14:36.336Z,-15969.92
2018-11-13T11:17:04.684Z,-15793.57
2018-11-13T11:19:33.258Z,-16067.01
2018-11-13T11:22:01.884Z,-17515.13
2018-11-13T11:24:30.133Z,-15596.45
2018-11-13T11:26:58.456Z,-14930.82
2018-11-13T11:29:26.879Z,-15165.32
2018-11-13T11:31:55.157Z,-17508.71
2018-11-13T11:34:23.582Z,-17604.88
2018-11-13T11:36:51.902Z,-16351.44
2018-11-13T11:39:20.340Z,-18147.58
2018-11-13T11:41:48.576Z,-19735.85
2018-11-13T11:44:16.897Z,-18239.02
2018-11-13T11:46:45.149Z,-18759.06
2018-11-13T11:49:13.538Z,-20170.03
2018-11-13T11:51:42.353Z,-19854.78
2018-11-13T11:54:10.758Z,-20147.42
2018-11-13T11:56:39.123Z,-20753.46
2018-11-13T11:59:07.422Z,-21062.79
2018-11-13T12:01:35.767Z,-21185.98
2018-11-13T12:04:04.062Z,-21245.28
2018-11-13T12:06:32.370Z,-21272.99
2018-11-13T12:09:00.662Z,-21278.22
2018-11-13T12:11:28.969Z,-21284.01
2018-11-13T12:13:57.309Z,-21278.22
2018-11-13T12:16:25.571Z,-21269.59
2018-11-13T12:18:53.944Z,-21147.96
2018-11-13T12:21:22.207Z,-20948.02
2018-11-13T12:23:50.549Z,-21292.93
2018-11-13T12:26:18.849Z,-21291.37
2018-11-13T12:28:47.203Z,-21296.17
2018-11-13T12:31:15.687Z,-21311.85
2018-11-13T12:33:44.768Z,-21301.96
2018-11-13T12:36:13.077Z,-21300.13
2018-11-13T12:38:41.391Z,-21300.55
2018-11-13T12:41:09.701Z,-21290.52
2018-11-13T12:43:38.014Z,-21292.78
2018-11-13T12:46:06.355Z,-21284.01
2018-11-13T12:48:34.681Z,-21299.42
2018-11-13T12:51:06.026Z,-21295.04
2018-11-13T12:53:38.254Z,-21315.80
2018-11-13T12:56:06.575Z,-21306.20
2018-11-13T12:58:34.933Z,-21349.52
2018-11-13T13:01:03.247Z,-21327.94
2018-11-13T13:03:31.587Z,-21366.42
2018-11-13T13:05:59.883Z,-21367.27
2018-11-13T13:08:28.254Z,-21399.21
2018-11-13T13:10:56.515Z,-21409.76
2018-11-13T13:13:24.837Z,-21391.76
2018-11-13T13:15:53.158Z,-21402.73
2018-11-13T13:18:21.482Z,-21381.77
2018-11-13T13:20:50.063Z,-21358.95
2018-11-13T13:23:18.410Z,-21333.16
2018-11-13T13:25:46.841Z,-21389.23
2018-11-13T13:28:15.124Z,-21375.71
2018-11-13T13:30:43.475Z,-21395.97
2018-11-13T13:33:11.779Z,-21389.09
2018-11-13T13:35:42.281Z,-21424.65
2018-11-13T13:38:11.158Z,-21403.86
2018-11-13T13:40:40.447Z,-21434.62
2018-11-13T13:43:09.664Z,-21421.28
2018-11-13T13:45:38.446Z,-21414.82
2018-11-13T13:48:06.797Z,-21393.59
2018-11-13T13:50:35.160Z,-21392.60
2018-11-13T13:53:03.556Z,-21397.81
2018-11-13T13:55:32.345Z,-21360.79
2018-11-13T13:58:00.815Z,-21347.12
2018-11-13T14:00:29.034Z,-21332.45
2018-11-13T14:02:57.417Z,-21324.13
2018-11-13T14:05:25.748Z,-21325.40
2018-11-13T14:07:54.172Z,-21323.57
2018-11-13T14:10:22.482Z,-21320.74
2018-11-13T14:12:50.869Z,-21319.75
2018-11-13T14:15:19.316Z,-21316.64
2018-11-13T14:17:47.619Z,-21317.36
2018-11-13T14:20:17.209Z,-21315.23
2018-11-13T14:22:45.551Z,-21326.81
2018-11-13T14:25:14.561Z,-21304.79
2018-11-13T14:27:43.079Z,-21307.33
2018-11-13T14:30:15.636Z,-21310.01
2018-11-13T14:32:44.735Z,-21303.66
2018-11-13T14:35:13.074Z,-21314.53
2018-11-13T14:37:41.356Z,-21314.67
2018-11-13T14:40:12.624Z,-21326.11
2018-11-13T14:42:40.966Z,-21319.61
2018-11-13T14:45:09.467Z,-21320.04
2018-11-13T14:47:37.826Z,-21315.38
2018-11-13T14:50:08.576Z,-21311.85
2018-11-13T14:52:37.162Z,-21315.38
2018-11-13T14:55:07.956Z,-21315.66
2018-11-13T14:57:36.216Z,-21317.50
2018-11-13T15:00:18.383Z,-21305.21
2018-11-13T15:03:01.004Z,-21291.79
2018-11-13T15:05:30.285Z,-21301.26
2018-11-13T15:08:01.953Z,-21299.14
2018-11-13T15:10:34.700Z,-21303.52
2018-11-13T15:13:03.123Z,-21287.55
2018-11-13T15:15:31.539Z,-21291.37
2018-11-13T15:17:59.965Z,-21295.75
2018-11-13T15:20:28.358Z,-21286.42
2018-11-13T15:22:56.664Z,-21283.88
2018-11-13T15:25:25.236Z,-21279.77
2018-11-13T15:27:53.588Z,-21276.66
2018-11-13T15:30:23.812Z,-21280.90
2018-11-13T15:32:55.620Z,-21282.04
2018-11-13T15:35:23.948Z,-21282.32
2018-11-13T15:37:52.431Z,-21279.21
2018-11-13T15:40:22.810Z,-21273.41
2018-11-13T15:42:51.168Z,-21275.39
2018-11-13T15:45:20.118Z,-21276.80
2018-11-13T15:47:49.156Z,-21274.54
2018-11-13T15:50:20.930Z,-21275.39
2018-11-13T15:52:49.229Z,-21267.33
2018-11-13T15:55:18.098Z,-21265.77
2018-11-13T15:57:47.188Z,-21258.56
2018-11-13T16:00:23.542Z,-21268.18
2018-11-13T16:03:05.430Z,-21262.95
2018-11-13T16:05:35.742Z,-21261.95
2018-11-13T16:08:06.477Z,-21271.85
2018-11-13T16:10:34.901Z,-21265.92
2018-11-13T16:13:03.426Z,-21269.73
2018-11-13T16:15:32.484Z,-21273.27
2018-11-13T16:18:02.212Z,-21276.24
2018-11-13T16:20:30.667Z,-21270.16
2018-11-13T16:22:58.999Z,-21270.45
2018-11-13T16:25:27.884Z,-21275.39
2018-11-13T16:27:56.240Z,-21258.42
2018-11-13T16:30:26.845Z,-21268.18
2018-11-13T16:32:55.369Z,-21254.87
2018-11-13T16:35:24.846Z,-21251.90
2018-11-13T16:37:54.103Z,-21251.47
2018-11-13T16:40:24.579Z,-21250.91
2018-11-13T16:42:52.941Z,-21254.59
2018-11-13T16:45:22.387Z,-21254.31
2018-11-13T16:47:51.042Z,-21257.29
2018-11-13T16:50:22.171Z,-21259.41
2018-11-13T16:52:50.740Z,-21254.59
2018-11-13T16:55:24.378Z,-21255.58
2018-11-13T16:57:53.521Z,-21257.43
2018-11-13T17:00:22.251Z,-21257.85
2018-11-13T17:02:50.629Z,-21254.31
2018-11-13T17:05:20.089Z,-21266.34
2018-11-13T17:07:48.480Z,-21258.28
2018-11-13T17:10:19.964Z,-21263.09
2018-11-13T17:12:48.644Z,-21258.98
2018-11-13T17:15:19.395Z,-21246.24
2018-11-13T17:17:48.721Z,-21247.79
2018-11-13T17:20:17.311Z,-21257.14
2018-11-13T17:22:46.244Z,-21243.55
2018-11-13T17:25:17.664Z,-21245.53
2018-11-13T17:27:47.184Z,-21238.73
2018-11-13T17:30:19.406Z,-21241.85
2018-11-13T17:32:46.847Z,-21247.52
2018-11-13T17:35:16.651Z,-21246.38
2018-11-13T17:37:45.668Z,-21242.70
2018-11-13T17:40:16.173Z,-21245.25
2018-11-13T17:42:45.308Z,-21252.89
2018-11-13T17:45:16.044Z,-21243.55
2018-11-13T17:47:44.893Z,-21255.30
2018-11-13T17:50:15.709Z,-21243.98
2018-11-13T17:52:45.123Z,-21249.21
2018-11-13T17:55:14.496Z,-21245.81
2018-11-13T17:57:43.891Z,-21246.24
2018-11-13T18:00:16.684Z,-21238.16
2018-11-13T18:02:46.591Z,-21242.13
2018-11-13T18:05:15.875Z,-21236.47
2018-11-13T18:07:44.602Z,-21233.07
2018-11-13T18:10:13.061Z,-21234.20
2018-11-13T18:12:41.528Z,-21235.05
2018-11-13T18:15:12.317Z,-21230.66
2018-11-13T18:17:40.871Z,-21230.38
2018-11-13T18:20:11.504Z,-21236.89
2018-11-13T18:22:40.609Z,-21232.36
2018-11-13T18:25:09.134Z,-21234.06
2018-11-13T18:27:38.488Z,-21231.79
2018-11-13T18:30:11.179Z,-21233.35
2018-11-13T18:32:39.595Z,-21239.87
2018-11-13T18:35:09.039Z,-21224.00
2018-11-13T18:37:37.526Z,-21235.05
2018-11-13T18:40:08.276Z,-21226.41
2018-11-13T18:42:36.618Z,-21226.97
2018-11-13T18:45:07.289Z,-21227.54
2018-11-13T18:47:35.978Z,-21230.09
2018-11-13T18:50:05.544Z,-21230.66
2018-11-13T18:52:34.085Z,-21228.53
2018-11-13T18:55:02.627Z,-21227.40
2018-11-13T18:57:31.273Z,-21230.94
2018-11-13T18:59:59.662Z,-21226.27
2018-11-13T19:02:28.304Z,-21225.13
2018-11-13T19:04:56.893Z,-21219.18
2018-11-13T19:07:25.550Z,-21218.18
2018-11-13T19:09:54.093Z,-21219.32
2018-11-13T19:12:22.911Z,-21215.92
2018-11-13T19:14:52.009Z,-21219.18
2018-11-13T19:17:20.525Z,-21221.45
2018-11-13T19:19:48.929Z,-21217.34
2018-11-13T19:22:17.250Z,-21218.04
2018-11-13T19:24:45.666Z,-21214.64
2018-11-13T19:27:14.282Z,-21227.12
2018-11-13T19:29:42.843Z,-21219.89
2018-11-13T19:32:11.212Z,-21218.18
2018-11-13T19:34:39.676Z,-21223.86
2018-11-13T19:37:08.234Z,-21222.58
2018-11-13T19:39:37.195Z,-21222.72
2018-11-13T19:42:05.774Z,-21223.57
2018-11-13T19:44:34.458Z,-21221.59
2018-11-13T19:47:02.654Z,-21215.78
2018-11-13T19:49:31.084Z,-21219.89
2018-11-13T19:51:59.656Z,-21210.67
2018-11-13T19:54:28.701Z,-21212.09
2018-11-13T19:56:57.145Z,-21211.52
2018-11-13T19:59:25.606Z,-21220.03
2018-11-13T20:01:54.247Z,-21212.80
2018-11-13T20:04:22.816Z,-21210.67
2018-11-13T20:06:51.218Z,-21216.76
2018-11-13T20:09:19.622Z,-21209.82
2018-11-13T20:11:48.082Z,-21209.11
2018-11-13T20:14:16.591Z,-21217.34
2018-11-13T20:16:45.020Z,-21217.76
2018-11-13T20:19:13.433Z,-21215.78
2018-11-13T20:21:41.862Z,-21219.18
2018-11-13T20:24:10.060Z,-21211.24
2018-11-13T20:26:44.631Z,-21213.50
2018-11-13T20:29:12.988Z,-21214.78
2018-11-13T20:31:41.337Z,-21220.88
2018-11-13T20:34:09.753Z,-21224.71
2018-11-13T20:36:38.126Z,-21214.07
2018-11-13T20:39:09.924Z,-21212.94
2018-11-13T20:41:38.447Z,-21223.29
2018-11-13T20:44:06.972Z,-21209.96
2018-11-13T20:46:35.608Z,-21219.89
2018-11-13T20:49:04.147Z,-21213.93
2018-11-13T20:51:32.556Z,-21215.63
2018-11-13T20:54:00.879Z,-21215.20
2018-11-13T20:56:29.252Z,-21213.50
2018-11-13T20:58:57.650Z,-21202.87
2018-11-13T21:01:26.040Z,-21206.55
2018-11-13T21:03:54.389Z,-21213.36
2018-11-13T21:06:22.768Z,-21210.39
2018-11-13T21:08:51.321Z,-21202.44
2018-11-13T21:11:19.735Z,-21208.12
2018-11-13T21:13:48.113Z,-21201.73
2018-11-13T21:16:16.606Z,-21199.75
2018-11-13T21:18:44.872Z,-21208.26
2018-11-13T21:21:13.383Z,-21207.97
2018-11-13T21:23:41.784Z,-21202.30
2018-11-13T21:26:10.084Z,-21213.50
2018-11-13T21:28:38.869Z,-21204.57
2018-11-13T21:31:07.260Z,-21204.15
2018-11-13T21:33:35.636Z,-21209.11
2018-11-13T21:36:04.065Z,-21208.12
2018-11-13T21:38:32.523Z,-21196.77
2018-11-13T21:41:00.990Z,-21200.60
2018-11-13T21:43:35.958Z,-21204.15
2018-11-13T21:46:04.219Z,-21201.31
2018-11-13T21:48:32.580Z,-21195.49
2018-11-13T21:51:00.899Z,-21197.62
2018-11-13T21:53:29.280Z,-21198.47
2018-11-13T21:55:57.701Z,-21197.05
2018-11-13T21:58:26.084Z,-21199.61
2018-11-13T22:00:54.513Z,-21199.32
2018-11-13T22:03:22.860Z,-21204.15
2018-11-13T22:05:51.281Z,-21204.15
2018-11-13T22:08:19.728Z,-21202.30
2018-11-13T22:10:48.025Z,-21195.92
2018-11-13T22:13:16.457Z,-21200.32
2018-11-13T22:15:44.924Z,-21192.80
2018-11-13T22:18:13.252Z,-21193.93
2018-11-13T22:20:43.620Z,-21195.35
2018-11-13T22:23:10.129Z,-21198.33
2018-11-13T22:25:38.550Z,-21202.59
2018-11-13T22:28:06.939Z,-21201.17
2018-11-13T22:30:35.204Z,-21200.88
2018-11-13T22:33:03.570Z,-21195.63
2018-11-13T22:35:31.919Z,-21197.91
2018-11-13T22:38:00.253Z,-21194.50
2018-11-13T22:40:29.201Z,-21194.64
2018-11-13T22:42:58.210Z,-21191.95
2018-11-13T22:45:27.765Z,-21194.21
2018-11-13T22:47:56.663Z,-21196.77
2018-11-13T22:50:26.551Z,-21190.52
2018-11-13T22:52:55.220Z,-21202.44
2018-11-13T22:55:23.585Z,-21189.11
2018-11-13T22:57:53.609Z,-21189.25
2018-11-13T23:00:26.338Z,-21190.39
2018-11-13T23:02:55.226Z,-21198.19
2018-11-13T23:05:23.767Z,-21193.51
2018-11-13T23:07:52.252Z,-21193.08
2018-11-13T23:12:55.354Z,-21197.91
2018-11-13T23:15:23.882Z,-21192.94
2018-11-13T23:17:52.207Z,-21192.51
2018-11-13T23:20:21.213Z,-21195.49
2018-11-13T23:22:49.608Z,-21198.61
2018-11-13T23:25:19.118Z,-21183.43
2018-11-13T23:27:48.429Z,-21191.52
2018-11-13T23:30:18.606Z,-21186.98
2018-11-13T23:32:47.041Z,-21196.06
2018-11-13T23:35:15.672Z,-21190.95
2018-11-13T23:37:45.242Z,-21184.00
2018-11-13T23:40:14.741Z,-21196.06
2018-11-13T23:42:43.631Z,-21179.59
2018-11-13T23:45:12.958Z,-21191.09
2018-11-13T23:47:41.588Z,-21175.61
2018-11-13T23:50:10.403Z,-21175.05
2018-11-13T23:52:38.879Z,-21179.16
2018-11-13T23:55:08.459Z,-21178.60
2018-11-13T23:57:36.847Z,-21184.85
